Time;durP1;ratioP1;P1;durP2;ratioP2;P2;SDS_P1;SDS_P2;PMS_P1;PMS_P2;Temp;Humidity;BMP_temperature;BMP_pressure;BME280_temperature;BME280_humidity;BME280_pressure;Samples;Min_cycle;Max_cycle;Signal;HPM_P1;HPM_P2
2023/10/02 00:01:47;;;;;;;19.05;7.53;;;;;;;-146.27;78.89;81313.63;5026106;28;20041;-68
2023/10/02 00:04:16;;;;;;;17.48;8.77;;;;;;;-146.27;78.94;81315.66;5018917;28;20034;-68
2023/10/02 00:06:42;;;;;;;23.77;10.10;;;;;;;-146.27;79.23;81295.56;5025761;28;20108;-68
2023/10/02 00:09:08;;;;;;;19.65;9.68;;;;;;;-146.27;78.99;81341.75;5016015;28;20104;-68
2023/10/02 00:11:36;;;;;;;22.40;8.75;;;;;;;-146.27;79.02;81363.84;5025575;28;20100;-69
2023/10/02 00:14:18;;;;;;;22.73;9.32;;;;;;;-146.27;79.15;81404.00;5025608;28;20075;-68
2023/10/02 00:17:00;;;;;;;22.65;8.80;;;;;;;-146.27;79.26;81355.81;5023478;28;20481;-68
2023/10/02 00:19:38;;;;;;;17.27;7.82;;;;;;;-146.27;79.29;81363.84;5028340;28;20097;-68
2023/10/02 00:22:08;;;;;;;20.45;8.88;;;;;;;-146.27;79.73;81395.97;5028150;28;20412;-68
2023/10/02 00:24:39;;;;;;;19.90;9.50;;;;;;;-146.27;79.49;81373.88;5024403;28;20052;-68
2023/10/02 00:27:09;;;;;;;19.02;8.90;;;;;;;-146.27;79.57;81466.28;5025216;28;20036;-69
2023/10/02 00:29:51;;;;;;;19.55;8.48;;;;;;;-146.27;79.93;81442.16;5029507;28;20100;-67
2023/10/02 00:32:19;;;;;;;20.90;8.25;;;;;;;-146.27;80.31;81432.13;5014948;28;20574;-68
2023/10/02 00:34:46;;;;;;;20.95;8.38;;;;;;;-146.27;79.99;81464.25;5025748;28;20025;-67
2023/10/02 00:37:15;;;;;;;21.73;8.60;;;;;;;-146.27;80.00;81498.41;5023982;28;20079;-68
2023/10/02 00:39:41;;;;;;;22.52;9.25;;;;;;;-146.27;80.18;81484.34;5017896;28;20112;-69
2023/10/02 00:42:16;;;;;;;26.27;9.57;;;;;;;-146.27;80.36;81490.38;5027626;28;20461;-69
2023/10/02 00:44:55;;;;;;;19.67;9.50;;;;;;;-146.27;80.84;81456.22;5026497;28;20533;-68
2023/10/02 00:47:42;;;;;;;18.33;8.82;;;;;;;-146.27;81.21;81548.59;5028978;28;20036;-68
2023/10/02 00:50:10;;;;;;;21.98;8.98;;;;;;;-146.27;80.85;81520.50;5023162;28;20026;-69
2023/10/02 00:52:41;;;;;;;29.63;10.10;;;;;;;-146.27;81.50;81522.50;5020106;28;20021;-68
2023/10/02 00:55:12;;;;;;;29.83;11.32;;;;;;;-146.27;81.36;81478.31;5022644;28;20053;-69
2023/10/02 00:57:39;;;;;;;23.30;10.15;;;;;;;-146.27;81.36;81474.31;5026175;28;20234;-69
2023/10/02 01:00:16;;;;;;;39.42;9.93;;;;;;;-146.27;81.18;81448.19;5021929;28;20492;-67
2023/10/02 01:02:41;;;;;;;25.52;10.38;;;;;;;-146.27;81.05;81476.31;5022162;28;20025;-68
2023/10/02 01:05:14;;;;;;;23.90;9.68;;;;;;;-146.27;81.14;81458.22;5026700;28;20033;-68
2023/10/02 01:07:41;;;;;;;18.73;8.60;;;;;;;-146.27;81.18;81452.22;5030991;28;20029;-68
2023/10/02 01:10:08;;;;;;;19.77;8.80;;;;;;;-146.27;80.83;81444.19;5022153;28;20080;-68
2023/10/02 01:12:43;;;;;;;22.02;9.57;;;;;;;-146.27;80.81;81442.16;5023990;28;20021;-69
2023/10/02 01:15:13;;;;;;;20.05;8.63;;;;;;;-146.27;80.72;81462.25;5030437;28;20053;-68
2023/10/02 01:17:45;;;;;;;26.30;10.05;;;;;;;-146.27;80.66;81404.00;5030145;28;20028;-69
2023/10/02 01:20:20;;;;;;;17.85;8.82;;;;;;;-146.27;80.62;81406.03;5026596;28;20064;-69
2023/10/02 01:22:51;;;;;;;22.25;9.50;;;;;;;-146.27;80.50;81416.06;5010845;28;20117;-69
2023/10/02 01:25:23;;;;;;;21.92;9.25;;;;;;;-146.27;80.56;81410.03;5023576;28;20097;-70
2023/10/02 01:27:51;;;;;;;23.63;8.98;;;;;;;-146.27;80.29;81434.13;5026817;28;20035;-70
2023/10/02 01:30:22;;;;;;;22.17;9.50;;;;;;;-146.27;80.37;81393.97;5026465;28;20531;-70
2023/10/02 01:35:54;;;;;;;18.13;9.07;;;;;;;-146.27;79.66;81379.91;5022558;28;20059;-70
2023/10/02 01:38:29;;;;;;;22.98;8.77;;;;;;;-146.27;80.11;81383.94;5023485;28;20568;-70
2023/10/02 01:43:32;;;;;;;22.75;9.38;;;;;;;-146.27;80.28;81387.94;5021125;28;20033;-70
2023/10/02 01:46:00;;;;;;;21.25;9.00;;;;;;;-146.27;80.10;81452.22;5025906;28;20033;-70
2023/10/02 01:48:44;;;;;;;24.48;9.73;;;;;;;-146.27;80.41;81444.19;5017568;28;20140;-69
2023/10/02 01:51:16;;;;;;;18.45;9.20;;;;;;;-146.27;80.52;81440.16;5025710;28;20539;-70
2023/10/02 01:53:45;;;;;;;25.05;9.70;;;;;;;-146.27;80.59;81442.16;5012471;28;20308;-70
2023/10/02 01:56:12;;;;;;;24.50;9.07;;;;;;;-146.27;80.56;81436.16;5013022;28;20033;-70
2023/10/02 01:58:44;;;;;;;25.50;8.70;;;;;;;-146.27;80.71;81498.41;5020977;28;20033;-69
2023/10/02 02:01:10;;;;;;;19.58;8.40;;;;;;;-146.27;80.51;81496.41;5024762;28;20064;-69
2023/10/02 02:03:42;;;;;;;23.98;11.48;;;;;;;-146.27;80.59;81504.44;5023467;28;20057;-69
2023/10/02 02:06:09;;;;;;;26.23;11.82;;;;;;;-146.27;80.69;81506.44;5020390;28;20037;-70
2023/10/02 02:08:36;;;;;;;23.70;9.68;;;;;;;-146.27;80.85;81516.47;5024934;28;20022;-71
2023/10/02 02:11:16;;;;;;;26.92;10.27;;;;;;;-146.27;80.81;81484.34;5021184;28;20068;-71
2023/10/02 02:13:53;;;;;;;19.95;9.73;;;;;;;-146.27;81.13;81528.53;5020557;28;20092;-68
2023/10/02 02:16:25;;;;;;;31.73;11.45;;;;;;;-146.27;81.52;81528.53;5025246;28;20053;-70
2023/10/02 02:18:55;;;;;;;23.33;10.23;;;;;;;-146.27;80.92;81540.56;5025899;28;20021;-70
2023/10/02 02:21:24;;;;;;;20.80;9.10;;;;;;;-146.27;81.41;81566.69;5014842;28;20489;-71
2023/10/02 02:24:03;;;;;;;22.08;9.98;;;;;;;-146.27;81.25;81540.56;5009457;28;20651;-70
2023/10/02 02:26:31;;;;;;;22.02;9.15;;;;;;;-146.27;81.23;81572.72;5012633;28;20109;-68
2023/10/02 02:28:57;;;;;;;25.90;9.10;;;;;;;-146.27;81.24;81562.66;5017321;28;20029;-69
2023/10/02 02:31:31;;;;;;;20.00;9.75;;;;;;;-146.27;81.17;81560.66;5023139;28;20041;-71
2023/10/02 02:33:58;;;;;;;27.00;11.45;;;;;;;-146.27;81.57;81600.84;5019163;28;20140;-68
2023/10/02 02:36:28;;;;;;;21.98;8.98;;;;;;;-146.27;81.57;81606.84;5022355;28;20022;-70
2023/10/02 02:39:22;;;;;;;22.85;10.65;;;;;;;-146.27;81.66;81612.88;5016125;28;20029;-69
2023/10/02 02:42:18;;;;;;;28.27;10.98;;;;;;;-146.27;81.87;81647.03;5022808;28;20046;-68
2023/10/02 02:44:49;;;;;;;24.52;9.70;;;;;;;-146.27;81.89;81598.81;5017720;28;20029;-70
2023/10/02 02:47:21;;;;;;;25.60;10.60;;;;;;;-146.27;81.84;81624.94;5027125;28;20033;-70
2023/10/02 02:49:50;;;;;;;22.70;10.48;;;;;;;-146.27;82.11;81612.88;5021148;28;20424;-70
2023/10/02 02:52:17;;;;;;;23.48;9.75;;;;;;;-146.27;81.87;81630.97;5023847;28;20541;-70
2023/10/02 02:54:58;;;;;;;22.48;10.02;;;;;;;-146.27;82.14;81632.97;5024618;28;20021;-71
2023/10/02 02:57:30;;;;;;;27.25;11.38;;;;;;;-146.27;82.04;81594.81;5026730;28;20036;-70
2023/10/02 03:02:52;;;;;;;24.10;10.40;;;;;;;-146.27;82.17;81624.94;5018247;28;20126;-70
2023/10/02 03:05:22;;;;;;;26.45;10.25;;;;;;;-146.27;82.33;81620.91;5024395;28;20032;-70
2023/10/02 03:07:56;;;;;;;22.70;10.68;;;;;;;-146.27;82.30;81634.97;5015909;28;20029;-69
2023/10/02 03:10:23;;;;;;;30.75;11.95;;;;;;;-146.27;82.68;81626.94;5023015;28;20044;-69
2023/10/02 03:12:51;;;;;;;31.38;11.68;;;;;;;-146.27;82.64;81641.00;5029708;28;20469;-69
2023/10/02 03:15:19;;;;;;;22.45;10.77;;;;;;;-146.27;82.39;81624.94;5028862;28;20449;-70
2023/10/02 03:17:49;;;;;;;25.95;11.15;;;;;;;-146.27;82.52;81649.03;5018206;28;20054;-70
2023/10/02 03:20:24;;;;;;;27.15;11.43;;;;;;;-146.27;82.67;81608.88;5020469;28;20504;-70
2023/10/02 03:22:54;;;;;;;21.38;10.90;;;;;;;-146.27;82.13;81580.75;5017492;28;20061;-70
2023/10/02 03:28:16;;;;;;;23.05;11.55;;;;;;;-146.27;81.85;81620.91;5029076;28;20571;-70
2023/10/02 03:30:46;;;;;;;29.45;11.07;;;;;;;-146.27;82.36;81626.94;5029073;28;20026;-71
2023/10/02 03:33:19;;;;;;;22.15;10.48;;;;;;;-146.27;82.12;81628.94;5028047;28;20030;-70
2023/10/02 03:36:02;;;;;;;45.88;12.95;;;;;;;-146.27;82.27;81618.91;5019349;28;20367;-70
2023/10/02 03:38:33;;;;;;;23.33;10.18;;;;;;;-146.27;82.39;81628.94;5022604;28;20417;-70
2023/10/02 03:41:01;;;;;;;24.85;10.52;;;;;;;-146.27;82.20;81636.97;5016796;28;20021;-70
2023/10/02 03:46:22;;;;;;;22.75;10.93;;;;;;;-146.27;82.32;81639.00;5038966;28;20049;-68
2023/10/02 03:48:58;;;;;;;21.27;10.68;;;;;;;-146.27;82.22;81620.91;5024884;28;20132;-69
2023/10/02 03:51:36;;;;;;;26.80;10.43;;;;;;;-146.27;82.17;81616.91;5028543;28;20025;-68
2023/10/02 03:54:18;;;;;;;23.63;10.05;;;;;;;-146.27;82.40;81641.00;5025781;28;20034;-69
2023/10/02 03:56:50;;;;;;;27.10;10.43;;;;;;;-146.27;82.30;81624.94;5021585;28;20037;-69
2023/10/02 03:59:21;;;;;;;26.23;9.82;;;;;;;-146.27;82.03;81632.97;5019478;28;20025;-69
2023/10/02 04:01:47;;;;;;;26.67;10.10;;;;;;;-146.27;82.59;81618.91;5028715;28;20067;-70
2023/10/02 04:06:42;;;;;;;23.95;9.73;;;;;;;-146.27;82.41;81667.09;5018712;28;20044;-69
2023/10/02 04:09:12;;;;;;;21.05;9.98;;;;;;;-146.27;82.61;81641.00;5019880;28;20029;-68
2023/10/02 04:11:39;;;;;;;22.95;9.18;;;;;;;-146.27;82.26;81689.19;5020273;28;20029;-68
2023/10/02 04:14:17;;;;;;;20.02;9.63;;;;;;;-146.27;82.44;81757.50;5026298;28;20060;-68
2023/10/02 04:16:43;;;;;;;24.00;9.88;;;;;;;-146.27;82.37;81705.28;5018888;28;20468;-69
2023/10/02 04:19:09;;;;;;;23.52;10.48;;;;;;;-146.27;82.83;81677.16;5027649;28;20108;-68
2023/10/02 04:21:34;;;;;;;23.80;9.55;;;;;;;-146.27;82.22;81699.25;5028729;28;20156;-68
2023/10/02 04:23:59;;;;;;;32.28;9.55;;;;;;;-146.27;82.77;81729.38;5016535;28;20053;-68
2023/10/02 04:26:28;;;;;;;31.00;9.23;;;;;;;-146.27;82.61;81743.44;5029600;28;20029;-68
2023/10/02 04:29:09;;;;;;;37.97;10.98;;;;;;;-146.27;83.32;81771.53;5021419;28;20075;-68
2023/10/02 04:31:35;;;;;;;21.40;8.77;;;;;;;-146.27;82.96;81749.47;5012822;28;20037;-68
2023/10/02 04:34:15;;;;;;;23.20;10.25;;;;;;;-146.27;83.10;81761.50;5015956;28;20429;-68
2023/10/02 04:36:42;;;;;;;31.15;10.88;;;;;;;-146.27;83.24;81787.63;5018969;28;20033;-67
2023/10/02 04:39:52;;;;;;;21.27;10.18;;;;;;;-146.27;83.13;81809.72;5020289;28;20386;-68
2023/10/02 04:42:12;;;;;;;42.83;11.32;;;;;;;-146.27;83.41;81781.59;5018992;28;20512;-66
2023/10/02 04:44:45;;;;;;;21.83;8.98;;;;;;;-146.27;83.26;81785.59;5016800;28;20390;-68
2023/10/02 04:47:20;;;;;;;21.63;9.90;;;;;;;-146.27;83.38;81793.66;5029811;28;20029;-68
2023/10/02 04:52:53;;;;;;;;;;;;;;;-146.27;83.66;81847.88;5027295;28;20029;-68
2023/10/02 04:55:24;;;;;;;26.70;9.20;;;;;;;-146.27;83.42;81817.75;5014533;28;19913;-69
2023/10/02 04:57:54;;;;;;;23.92;9.80;;;;;;;-146.27;83.86;81813.72;5031689;28;20389;-68
2023/10/02 05:00:35;;;;;;;22.38;9.57;;;;;;;-146.27;84.04;81777.56;5025488;28;20037;-68
2023/10/02 05:05:48;;;;;;;29.60;10.95;;;;;;;-146.27;83.53;81781.59;5022380;28;20056;-67
2023/10/02 05:08:21;;;;;;;24.60;9.88;;;;;;;-146.27;83.96;81781.59;5027604;28;20038;-68
2023/10/02 05:10:56;;;;;;;39.08;11.13;;;;;;;-146.27;83.91;81779.59;5018553;28;20025;-67
2023/10/02 05:16:11;;;;;;;21.63;9.65;;;;;;;-146.27;83.98;81769.53;5024256;28;20539;-67
2023/10/02 05:18:39;;;;;;;33.78;11.77;;;;;;;-146.27;83.84;81741.41;5030786;28;20040;-67
2023/10/02 05:21:05;;;;;;;29.58;11.32;;;;;;;-146.27;84.07;81769.53;5018559;28;20684;-69
2023/10/02 05:23:30;;;;;;;28.13;11.40;;;;;;;-146.27;84.42;81747.44;5011742;28;20029;-68
2023/10/02 05:26:02;;;;;;;24.20;10.80;;;;;;;-146.27;84.22;81769.53;5022367;28;20551;-69
2023/10/02 05:28:43;;;;;;;53.85;12.02;;;;;;;-146.27;84.11;81775.56;5023292;28;20044;-66
2023/10/02 05:31:11;;;;;;;29.13;11.35;;;;;;;-146.27;84.01;81801.69;5022065;28;20055;-69
2023/10/02 05:33:37;;;;;;;26.88;10.63;;;;;;;-146.27;84.10;81769.53;5023505;28;20052;-68
2023/10/02 05:36:09;;;;;;;24.05;12.82;;;;;;;-146.27;83.97;81733.38;5016636;28;20084;-68
2023/10/02 05:38:35;;;;;;;27.40;11.40;;;;;;;-146.27;84.44;81749.47;5014607;28;20028;-68
2023/10/02 05:41:03;;;;;;;24.50;11.05;;;;;;;-146.27;84.28;81733.38;5020205;28;20112;-69
2023/10/02 05:43:31;;;;;;;27.80;10.75;;;;;;;-146.27;84.29;81773.56;5020082;28;20485;-69
2023/10/02 05:45:57;;;;;;;28.38;10.73;;;;;;;-146.27;84.42;81745.44;5033792;28;20032;-68
2023/10/02 05:50:59;;;;;;;25.85;11.45;;;;;;;-146.27;84.26;81721.34;5027698;28;20041;-68
2023/10/02 05:53:34;;;;;;;40.65;11.65;;;;;;;-146.27;84.73;81737.41;5020099;28;20033;-69
2023/10/02 05:58:36;;;;;;;39.90;10.93;;;;;;;-146.27;84.73;81741.41;5034975;28;20136;-68
2023/10/02 06:01:18;;;;;;;29.92;12.18;;;;;;;-146.27;84.26;81701.25;5026201;28;20054;-69
2023/10/02 06:03:45;;;;;;;27.23;10.20;;;;;;;-146.27;84.31;81739.41;5021506;28;20029;-68
2023/10/02 06:06:21;;;;;;;24.58;11.20;;;;;;;-146.27;84.46;81721.34;5023323;28;20026;-68
2023/10/02 06:08:48;;;;;;;25.95;11.98;;;;;;;-146.27;84.56;81681.16;5022135;28;20028;-69
2023/10/02 06:11:59;;;;;;;25.48;11.68;;;;;;;-146.27;84.88;81715.31;5020112;28;20516;-68
2023/10/02 06:14:09;;;;;;;29.58;11.73;;;;;;;-146.27;84.39;81715.31;5027797;28;20139;-67
2023/10/02 06:16:38;;;;;;;25.30;11.68;;;;;;;-146.27;84.56;81693.22;5018972;28;20025;-69
2023/10/02 06:19:06;;;;;;;28.27;11.23;;;;;;;-146.27;84.55;81697.22;5024026;28;20036;-67
2023/10/02 06:24:27;;;;;;;23.02;11.38;;;;;;;-146.27;84.54;81745.44;5024503;28;20115;-68
2023/10/02 06:26:57;;;;;;;25.73;11.60;;;;;;;-146.27;84.53;81693.22;5026358;28;20044;-68
2023/10/02 06:29:35;;;;;;;29.70;11.93;;;;;;;-146.27;84.42;81665.09;5018613;28;20485;-68
2023/10/02 06:32:05;;;;;;;31.42;12.57;;;;;;;-146.27;84.25;81711.28;5013417;28;20022;-68
2023/10/02 06:34:38;;;;;;;32.72;13.05;;;;;;;-146.27;84.64;81665.09;5018507;28;20064;-67
2023/10/02 06:37:11;;;;;;;28.80;11.55;;;;;;;-146.27;84.80;81713.31;5026290;28;20037;-68
2023/10/02 06:39:45;;;;;;;31.13;12.10;;;;;;;-146.27;84.66;81719.31;5020639;28;20127;-68
2023/10/02 06:42:15;;;;;;;37.85;13.20;;;;;;;-146.27;84.72;81669.13;5013906;28;20033;-68
2023/10/02 06:44:42;;;;;;;34.03;13.23;;;;;;;-146.27;84.62;81669.13;5028066;28;20030;-69
2023/10/02 06:47:13;;;;;;;25.90;12.30;;;;;;;-146.27;84.88;81641.00;5029057;28;20052;-69
2023/10/02 06:49:44;;;;;;;28.77;11.80;;;;;;;-146.27;84.96;81665.09;5023434;28;20037;-70
2023/10/02 06:52:15;;;;;;;34.97;14.05;;;;;;;-146.27;85.00;81632.97;5011504;28;20022;-68
2023/10/02 06:54:55;;;;;;;33.33;13.82;;;;;;;-146.27;84.67;81624.94;5015089;28;20034;-70
2023/10/02 06:57:24;;;;;;;33.05;13.57;;;;;;;-146.27;85.03;81620.91;5015067;28;20485;-69
2023/10/02 06:59:53;;;;;;;26.85;13.18;;;;;;;-146.27;84.67;81602.84;5018184;28;20033;-68
2023/10/02 07:02:26;;;;;;;33.05;13.18;;;;;;;-146.27;84.71;81592.78;5026099;28;20044;-70
2023/10/02 07:04:55;;;;;;;37.78;14.23;;;;;;;-146.27;84.59;81588.78;5023279;28;20034;-69
2023/10/02 07:07:26;;;;;;;38.60;15.05;;;;;;;-146.27;84.43;81574.72;5019054;28;20536;-68
2023/10/02 07:10:07;;;;;;;37.33;14.45;;;;;;;-146.27;84.61;81542.59;5022598;28;20049;-68
2023/10/02 07:12:43;;;;;;;31.85;13.57;;;;;;;-146.27;84.93;81544.59;5022225;28;20104;-70
2023/10/02 07:15:22;;;;;;;31.42;13.48;;;;;;;-146.27;84.97;81516.47;5025972;28;20056;-70
2023/10/02 07:17:48;;;;;;;39.47;14.43;;;;;;;-146.27;85.01;81524.50;5023141;28;20397;-70
2023/10/02 07:20:20;;;;;;;34.33;14.85;;;;;;;-146.27;84.59;81492.38;5016376;28;20017;-70
2023/10/02 07:22:49;;;;;;;37.05;14.90;;;;;;;-146.27;84.33;81536.56;5013617;28;20030;-70
2023/10/02 07:25:20;;;;;;;35.45;15.23;;;;;;;-146.27;83.96;81490.38;5013064;28;20625;-70
2023/10/02 07:27:48;;;;;;;35.50;15.20;;;;;;;-146.27;84.14;81470.28;5022628;28;20044;-70
2023/10/02 07:30:24;;;;;;;39.17;16.23;;;;;;;-146.27;84.05;81470.28;5012838;28;20017;-70
2023/10/02 07:32:51;;;;;;;41.10;15.38;;;;;;;-146.27;84.33;81476.31;5014627;28;20040;-70
2023/10/02 07:35:21;;;;;;;33.08;15.63;;;;;;;-146.27;84.34;81452.22;5018438;28;20034;-70
2023/10/02 07:37:58;;;;;;;37.03;15.45;;;;;;;-146.27;84.10;81448.19;5023064;28;20401;-72
2023/10/02 07:40:27;;;;;;;36.00;16.17;;;;;;;-146.27;84.20;81418.06;5029654;28;20017;-71
2023/10/02 07:42:53;;;;;;;36.90;16.55;;;;;;;-146.27;83.97;81412.03;5023863;28;20037;-71
2023/10/02 07:45:25;;;;;;;42.08;16.67;;;;;;;-146.27;84.11;81464.25;5009779;28;20501;-71
2023/10/02 07:48:12;;;;;;;39.75;17.10;;;;;;;-146.27;84.10;81440.16;5009899;28;20029;-71
2023/10/02 07:50:39;;;;;;;41.25;17.33;;;;;;;-146.27;84.30;81462.25;5010008;28;20022;-72
2023/10/02 07:53:05;;;;;;;39.60;16.98;;;;;;;-146.27;84.01;81412.03;5022803;28;20080;-70
2023/10/02 07:55:33;;;;;;;40.88;17.52;;;;;;;-146.27;83.96;81385.94;5009490;28;20052;-70
2023/10/02 07:58:00;;;;;;;38.92;17.38;;;;;;;-146.27;84.36;81420.06;5015148;28;20018;-70
2023/10/02 08:00:38;;;;;;;41.00;17.67;;;;;;;-146.27;84.18;81371.88;5024468;28;20028;-70
2023/10/02 08:03:55;;;;;;;43.90;17.75;;;;;;;-146.27;83.96;81414.06;5014911;28;20029;-70
2023/10/02 08:06:00;;;;;;;39.33;17.67;;;;;;;-146.27;84.50;81402.00;5014366;28;20115;-68
2023/10/02 08:08:33;;;;;;;39.78;17.95;;;;;;;-146.27;84.04;81329.72;5029478;28;20111;-69
2023/10/02 08:11:06;;;;;;;;;;;;;;;-146.27;84.10;81329.72;5021285;28;20030;-68
2023/10/02 08:13:35;;;;;;;43.35;18.45;;;;;;;-146.27;83.88;81339.75;5012967;28;19913;-69
2023/10/02 08:16:12;;;;;;;38.33;17.20;;;;;;;-146.27;83.77;81335.72;5020814;28;20037;-68
2023/10/02 08:18:56;;;;;;;46.08;18.25;;;;;;;-146.27;83.72;81329.72;5032661;28;20029;-69
2023/10/02 08:21:33;;;;;;;41.83;18.92;;;;;;;-146.27;83.76;81285.53;5032023;28;20082;-69
2023/10/02 08:24:01;;;;;;;39.65;18.23;;;;;;;-146.27;83.84;81311.63;5032538;28;20022;-69
2023/10/02 08:26:27;;;;;;;38.55;17.85;;;;;;;-146.27;83.53;81245.34;5027378;28;20482;-68
2023/10/02 08:28:53;;;;;;;44.08;18.35;;;;;;;-146.27;83.69;81243.34;5027187;28;20086;-69
2023/10/02 08:31:19;;;;;;;46.97;18.90;;;;;;;-146.27;83.30;81271.47;5045136;28;20110;-69
2023/10/02 08:33:45;;;;;;;41.70;18.02;;;;;;;-146.27;83.23;81217.25;5026239;28;20478;-66
2023/10/02 08:36:12;;;;;;;43.47;18.25;;;;;;;-146.27;83.31;81225.28;5040979;28;20077;-69
2023/10/02 08:38:40;;;;;;;44.67;17.65;;;;;;;-146.27;83.31;81203.19;5029052;28;20036;-68
2023/10/02 08:41:08;;;;;;;45.95;18.55;;;;;;;-146.27;82.98;81163.03;5028042;28;20032;-68
2023/10/02 08:43:43;;;;;;;48.92;19.00;;;;;;;-146.27;82.90;81203.19;5025426;28;20026;-68
2023/10/02 08:46:31;;;;;;;45.25;18.33;;;;;;;-146.27;82.70;81120.84;5026582;28;20054;-69
2023/10/02 08:48:55;;;;;;;40.25;17.02;;;;;;;-146.27;82.43;81066.63;5032350;28;20044;-69
2023/10/02 08:51:33;;;;;;;44.42;17.73;;;;;;;-146.27;82.23;81022.44;5044369;28;20400;-69
2023/10/02 08:54:05;;;;;;;49.40;17.00;;;;;;;-146.27;82.22;81126.88;5031503;28;20021;-69
2023/10/02 08:56:43;;;;;;;45.13;18.48;;;;;;;-146.27;81.74;81010.41;5035851;28;20127;-69
2023/10/02 08:59:26;;;;;;;40.63;17.25;;;;;;;-146.27;81.49;80938.09;5023120;28;20026;-68
2023/10/02 09:02:07;;;;;;;38.97;16.60;;;;;;;-146.27;81.63;80974.25;5030276;28;20044;-69
2023/10/02 09:04:33;;;;;;;43.05;16.27;;;;;;;-146.27;81.57;80946.13;5032924;28;20345;-69
2023/10/02 09:06:58;;;;;;;39.15;15.85;;;;;;;-146.27;81.11;80883.88;5031514;28;20032;-69
2023/10/02 09:09:36;;;;;;;34.65;15.30;;;;;;;-146.27;80.72;80797.53;5020684;28;20033;-68
2023/10/02 09:12:03;;;;;;;33.30;15.07;;;;;;;-146.27;79.99;80769.44;5025662;28;20490;-69
2023/10/02 09:17:12;;;;;;;35.60;15.05;;;;;;;-146.27;79.61;80727.28;5034394;28;20131;-69
2023/10/02 09:19:53;;;;;;;30.67;15.07;;;;;;;-146.27;79.70;80789.50;5033378;28;20461;-68
2023/10/02 09:22:20;;;;;;;32.25;14.32;;;;;;;-146.27;79.39;80745.34;5034524;28;20030;-68
2023/10/02 09:25:23;;;;;;;37.78;14.38;;;;;;;-146.27;79.69;80751.38;5028255;28;20111;-68
2023/10/02 09:28:13;;;;;;;32.78;13.15;;;;;;;-146.27;80.33;80729.28;5022585;28;20018;-68
2023/10/02 09:30:41;;;;;;;28.50;13.43;;;;;;;-146.27;79.33;80652.97;5023002;28;20116;-69
2023/10/02 09:33:25;;;;;;;28.77;14.27;;;;;;;-146.27;78.95;80681.09;5039972;28;20044;-68
2023/10/02 09:35:52;;;;;;;30.10;13.48;;;;;;;-146.27;78.11;80560.59;5014502;28;20068;-68
2023/10/02 09:38:22;;;;;;;31.15;13.65;;;;;;;-146.27;77.31;80486.31;5026984;28;20061;-69
2023/10/02 09:40:56;;;;;;;27.08;13.10;;;;;;;-146.27;77.43;80536.50;5031157;28;20430;-70
2023/10/02 09:43:31;;;;;;;29.58;12.32;;;;;;;-146.27;76.79;80552.56;5022976;28;20022;-69
2023/10/02 09:46:05;;;;;;;25.52;12.80;;;;;;;-146.27;76.90;80492.34;5024236;28;20037;-69
2023/10/02 09:51:25;;;;;;;25.05;12.85;;;;;;;-146.27;76.60;80432.09;5035393;28;20043;-70
2023/10/02 09:54:13;;;;;;;32.97;14.52;;;;;;;-146.27;76.06;80430.09;5034044;28;20021;-69
2023/10/02 09:57:05;;;;;;;32.13;13.27;;;;;;;-146.27;75.75;80395.97;5030356;28;20140;-68
2023/10/02 09:59:48;;;;;;;25.10;11.98;;;;;;;-146.27;74.99;80327.69;5017603;28;20077;-69
2023/10/02 10:13:46;;;;;;;29.73;13.93;;;;;;;-146.27;75.83;80291.56;5027114;28;20103;-69
2023/10/02 10:16:18;;;;;;;32.50;13.90;;;;;;;-146.27;74.51;80183.13;5019457;28;20034;-69
2023/10/02 10:19:41;;;;;;;26.40;12.80;;;;;;;-146.27;73.78;80128.94;5037320;28;20087;-69
2023/10/02 10:21:56;;;;;;;22.60;11.38;;;;;;;-146.27;72.75;80143.00;5034997;28;20034;-70
2023/10/02 10:24:56;;;;;;;28.95;12.05;;;;;;;-146.27;72.27;79984.38;5015747;28;20045;-71
2023/10/02 10:27:53;;;;;;;29.80;12.75;;;;;;;-146.27;71.75;79998.44;5021896;28;20100;-69
2023/10/02 10:30:20;;;;;;;31.88;12.35;;;;;;;-146.27;71.97;80086.78;5027464;28;20029;-70
2023/10/02 10:32:46;;;;;;;21.52;10.85;;;;;;;-146.27;71.42;79976.34;5032317;28;20029;-70
2023/10/02 10:35:31;;;;;;;24.77;10.93;;;;;;;-146.27;71.29;79807.72;5041005;28;20035;-70
2023/10/02 10:37:57;;;;;;;26.15;11.32;;;;;;;-146.27;69.86;79695.31;5035159;28;20112;-68
2023/10/02 10:40:44;;;;;;;28.20;11.30;;;;;;;-146.27;69.44;79729.44;5048599;28;20159;-66
2023/10/02 10:43:16;;;;;;;22.52;10.52;;;;;;;-146.27;68.15;79608.97;5010359;28;20475;-67
2023/10/02 10:45:44;;;;;;;22.77;10.85;;;;;;;-146.27;67.41;79564.81;5012168;28;20033;-69
2023/10/02 10:48:23;;;;;;;24.17;10.15;;;;;;;-146.27;68.27;79430.31;5025420;28;20053;-67
2023/10/02 10:51:06;;;;;;;28.02;12.10;;;;;;;-146.27;66.32;79494.56;5016531;28;20053;-69
2023/10/02 10:53:41;;;;;;;27.05;11.88;;;;;;;-146.27;65.90;79606.97;5014937;28;20097;-70
2023/10/02 10:56:19;;;;;;;22.08;10.77;;;;;;;-146.27;66.34;79693.28;5024502;28;20033;-69
2023/10/02 10:58:52;;;;;;;20.13;9.13;;;;;;;-146.27;66.94;79890.03;5014426;28;20324;-68
2023/10/02 11:01:20;;;;;;;19.92;9.30;;;;;;;-146.27;67.59;79869.94;5027008;28;20029;-69
2023/10/02 11:03:54;;;;;;;22.75;8.98;;;;;;;-146.27;67.08;79741.47;5026374;28;20125;-69
2023/10/02 11:06:22;;;;;;;24.27;10.43;;;;;;;-146.27;67.45;79805.72;5024591;28;20087;-70
2023/10/02 11:09:15;;;;;;;21.83;9.65;;;;;;;-146.27;67.50;79781.63;5027252;28;20026;-69
2023/10/02 11:11:50;;;;;;;20.98;9.02;;;;;;;-146.27;67.91;79737.47;5019535;28;20041;-70
2023/10/02 11:14:44;;;;;;;25.33;9.75;;;;;;;-146.27;67.34;79711.38;5017168;28;20517;-70
2023/10/02 11:17:11;;;;;;;20.83;10.52;;;;;;;-146.27;67.03;79709.34;5018697;28;20359;-70
2023/10/02 11:19:45;;;;;;;26.55;10.20;;;;;;;-146.27;67.71;79821.78;5018471;28;20088;-69
2023/10/02 11:22:19;;;;;;;20.45;9.20;;;;;;;-146.27;68.10;79763.56;5018676;28;20882;-69
2023/10/02 11:24:55;;;;;;;17.13;8.88;;;;;;;-146.27;68.12;79586.91;5020423;28;20017;-69
2023/10/02 11:27:22;;;;;;;18.25;8.68;;;;;;;-146.27;67.80;79420.28;5017404;28;20386;-68
2023/10/02 11:30:02;;;;;;;24.10;9.93;;;;;;;-146.27;65.97;79452.41;5013744;28;20033;-69
2023/10/02 11:32:48;;;;;;;21.33;9.30;;;;;;;-146.27;64.97;79211.53;5018696;28;20021;-69
2023/10/02 11:35:14;;;;;;;24.40;11.25;;;;;;;-146.27;64.07;79081.06;5017878;28;20036;-69
2023/10/02 11:37:46;;;;;;;22.83;10.23;;;;;;;-146.27;63.06;78952.63;5022200;28;20537;-70
2023/10/02 11:40:13;;;;;;;21.48;10.88;;;;;;;-146.27;62.06;78974.69;5020957;28;20021;-70
2023/10/02 11:42:38;;;;;;;19.17;9.82;;;;;;;-146.27;62.37;78998.78;5026369;28;20025;-69
2023/10/02 11:45:04;;;;;;;18.60;9.90;;;;;;;-146.27;64.01;79183.44;5025115;28;20033;-68
2023/10/02 11:47:30;;;;;;;19.27;8.93;;;;;;;-146.27;63.31;79012.81;5015663;28;20486;-69
2023/10/02 11:49:57;;;;;;;22.05;9.25;;;;;;;-146.27;62.87;78812.13;5010028;28;20108;-68
2023/10/02 11:52:22;;;;;;;18.67;9.10;;;;;;;-146.27;61.71;78810.09;5007037;28;20577;-70
2023/10/02 11:54:48;;;;;;;21.40;9.55;;;;;;;-146.27;60.62;78800.06;5012601;28;20029;-71
2023/10/02 11:57:14;;;;;;;15.75;8.07;;;;;;;-146.27;61.23;78814.13;5029797;28;20161;-71
2023/10/02 11:59:42;;;;;;;16.80;8.85;;;;;;;-146.27;60.66;78751.91;5042616;28;20032;-69
2023/10/02 12:02:11;;;;;;;21.95;9.38;;;;;;;-146.27;60.82;78605.41;5030450;28;20033;-69
2023/10/02 12:04:37;;;;;;;17.52;9.07;;;;;;;-146.27;60.17;78629.47;5035913;28;20025;-68
2023/10/02 12:07:03;;;;;;;15.15;7.60;;;;;;;-146.27;59.67;78629.47;5026929;28;20048;-68
2023/10/02 12:09:28;;;;;;;15.18;6.90;;;;;;;-146.27;59.42;78426.78;5032299;28;20636;-70
2023/10/02 12:11:55;;;;;;;13.00;5.65;;;;;;;-146.27;59.17;78525.13;5040711;28;20033;-70
2023/10/02 12:14:22;;;;;;;18.00;6.72;;;;;;;-146.27;59.06;78497.03;5042543;28;20038;-70
2023/10/02 12:16:47;;;;;;;14.45;6.07;;;;;;;-146.27;58.58;78665.59;5033986;28;20036;-71
2023/10/02 12:19:15;;;;;;;16.92;6.05;;;;;;;-146.27;59.19;78625.47;5020666;28;20028;-69